Ana Sayfa
METAR-TAF:

METAR-TAF

Havaalanları :

Larnaka Uluslararası Havalimanı

Larnaka, Kıbrıs

Enlem: 34-53N, Boylam: 033-38E, yükseklik: 2 m

Güncel hava durumu gözlemi

Rapor saat 22:30 UTC de 21 dakika önce yapıldı.
Rüzgar değişken yönden 2 kt
Sıcaklık 21°C
Nem 88%
Basınç 1016 hPa
Görüş mesafesi 10 km veya daha fazla
2500 ft yükseklikte az bulutlu

METAR: LCLK 172230Z VRB02KT 9999 FEW025 21/19 Q1016 NOSIG

Saat: 01:51 (22:51 UTC)

Tahmin

Rapor saat 17:30 UTC de 5 saat ve 21 dakika önce yapıldı.
Ayın 17'si saat 18 UTC'den ayın 18'si saat 18 UTC'ye kadar geçerli Tahmin
Rüzgar kuzeybatıdan 7 kt
Görüş mesafesi 10 km veya daha fazla
2000 ft yükseklikte az bulutlu
Dönüşüyor
ayın 18'si saat 08 UTC'den ayın 18'si saat 11 UTC'ye kadar
Rüzgar güneydan 12 kt
Dönüşüyor
ayın 18'si saat 16 UTC'den ayın 18'si saat 18 UTC'ye kadar
Rüzgar kuzeybatıdan 5 kt

TAF: LCLK 171730Z 1718/1818 32007KT 9999 FEW020 BECMG 1808/1811 18012KT BECMG 1816/1818 32005KT

4.000'den fazla havaalanı için hava durumu gözlemleri ve tahminleri (METAR ve TAF raporları).

Kullanılabilir istasyonlar harita üzerinde sarı ve kırmızı noktalarla gösterilir.

İstasyonun adını görmek için fareyi noktanın üzerinde gezdirin.

Sonrasında hava gözlem ve tahminlerini görmek için tıklayın.

Haritayı değiştirmek için: yaklaştırmak için siyah artı işaretli yeşil düğmeye ve uzaklaştırmak için de eksi işaretli düğmeye hızla tıklayın; bitişik haritalar için yeşil okları kullanın.


METAR-TAF: